createdAt,value
2022-07-29T00:03:55.785Z,27.10
2022-07-29T00:08:54.591Z,27.02
2022-07-29T00:13:53.396Z,26.91
2022-07-29T00:18:53.561Z,26.81
2022-07-29T00:23:52.401Z,26.71
2022-07-29T00:28:51.209Z,26.71
2022-07-29T00:33:49.923Z,26.75
2022-07-29T00:38:50.161Z,26.66
2022-07-29T00:43:48.994Z,26.48
2022-07-29T00:48:50.564Z,26.34
2022-07-29T00:53:52.056Z,26.33
2022-07-29T00:58:52.907Z,26.26
2022-07-29T01:03:51.939Z,26.20
2022-07-29T01:08:53.512Z,26.07
2022-07-29T01:13:53.292Z,25.96
2022-07-29T01:18:58.733Z,25.98
2022-07-29T01:24:32.477Z,25.91
2022-07-29T01:29:41.194Z,25.78
2022-07-29T01:34:50.788Z,25.73
2022-07-29T01:39:52.702Z,25.65
2022-07-29T01:44:59.275Z,25.67
2022-07-29T01:50:00.602Z,25.60
2022-07-29T01:55:04.952Z,25.52
2022-07-29T02:00:06.820Z,25.46
2022-07-29T02:05:17.179Z,25.39
2022-07-29T02:10:17.548Z,25.32
2022-07-29T02:15:19.336Z,25.42
2022-07-29T02:20:19.037Z,25.28
2022-07-29T02:25:20.195Z,25.17
2022-07-29T02:30:21.844Z,25.14
2022-07-29T02:35:22.378Z,25.10
2022-07-29T02:40:21.256Z,25.04
2022-07-29T02:45:21.497Z,25.10
2022-07-29T02:50:28.419Z,25.13
2022-07-29T02:55:31.323Z,25.19
2022-07-29T03:00:34.060Z,25.23
2022-07-29T03:05:33.823Z,25.23
2022-07-29T03:10:33.451Z,25.29
2022-07-29T03:15:34.134Z,25.25
2022-07-29T03:20:33.280Z,25.24
2022-07-29T03:25:32.410Z,25.30
2022-07-29T03:30:31.838Z,25.29
2022-07-29T03:35:32.722Z,25.25
2022-07-29T03:40:36.112Z,25.28
2022-07-29T03:45:36.140Z,25.21
2022-07-29T03:50:37.109Z,25.03
2022-07-29T03:55:41.551Z,24.98
2022-07-29T04:00:40.760Z,24.90
2022-07-29T04:05:40.984Z,24.92
2022-07-29T04:10:40.636Z,25.03
2022-07-29T04:15:39.502Z,25.03
2022-07-29T04:20:38.328Z,25.04
2022-07-29T04:25:40.998Z,25.04
2022-07-29T04:30:39.911Z,25.06
2022-07-29T04:35:47.043Z,25.17
2022-07-29T04:40:50.806Z,25.31
2022-07-29T04:45:50.003Z,25.52
2022-07-29T04:50:49.397Z,25.66
2022-07-29T04:55:48.131Z,25.71
2022-07-29T05:00:48.285Z,25.63
2022-07-29T05:05:47.096Z,25.60
2022-07-29T05:10:45.861Z,25.72
2022-07-29T05:15:44.673Z,25.73
2022-07-29T05:20:44.903Z,25.88
2022-07-29T05:25:44.947Z,25.82
2022-07-29T05:30:45.524Z,25.96
2022-07-29T05:35:45.817Z,26.02
2022-07-29T05:40:44.548Z,26.23
2022-07-29T05:45:50.421Z,26.14
2022-07-29T05:50:50.866Z,26.29
2022-07-29T05:55:49.941Z,26.45
2022-07-29T06:00:49.009Z,26.65
2022-07-29T06:05:47.757Z,26.71
2022-07-29T06:10:48.064Z,26.73
2022-07-29T06:15:47.099Z,26.89
2022-07-29T06:20:45.889Z,27.07
2022-07-29T06:25:44.846Z,27.22
2022-07-29T06:30:45.104Z,27.40
2022-07-29T06:35:53.124Z,27.47
2022-07-29T06:41:06.309Z,27.54
2022-07-29T06:46:06.934Z,27.67
2022-07-29T06:51:10.106Z,27.81
2022-07-29T06:56:10.352Z,27.95
2022-07-29T07:01:14.772Z,28.11
2022-07-29T07:06:15.216Z,28.42
2022-07-29T07:11:15.392Z,28.60
2022-07-29T07:16:23.759Z,28.91
2022-07-29T07:21:25.308Z,29.14
2022-07-29T07:26:24.155Z,29.30
2022-07-29T07:31:24.414Z,29.46
2022-07-29T07:36:23.505Z,29.70
2022-07-29T07:41:22.465Z,29.76
2022-07-29T07:46:21.441Z,29.88
2022-07-29T07:51:21.818Z,30.11
2022-07-29T07:56:21.271Z,30.27
2022-07-29T08:01:24.025Z,30.34
2022-07-29T08:06:25.362Z,30.56
2022-07-29T08:11:24.206Z,30.67
2022-07-29T08:16:23.315Z,30.86
2022-07-29T08:21:23.716Z,31.10
2022-07-29T08:26:23.714Z,31.33
2022-07-29T08:31:22.780Z,31.54
2022-07-29T08:36:23.135Z,31.80
2022-07-29T08:41:23.814Z,32.24
2022-07-29T08:46:23.816Z,32.89
2022-07-29T08:51:23.738Z,33.90
2022-07-29T08:56:24.724Z,35.04
2022-07-29T09:01:36.225Z,35.99
2022-07-29T09:06:46.646Z,37.14
2022-07-29T09:11:46.859Z,37.82
2022-07-29T09:16:53.836Z,38.53
2022-07-29T09:21:59.907Z,39.76
2022-07-29T09:27:00.395Z,40.69
2022-07-29T09:31:59.316Z,41.68
2022-07-29T09:36:58.812Z,42.13
2022-07-29T09:42:01.412Z,41.58
2022-07-29T09:47:07.003Z,41.37
2022-07-29T09:52:08.036Z,42.92
2022-07-29T09:57:10.834Z,44.14
2022-07-29T10:02:20.319Z,43.39
2022-07-29T10:07:23.599Z,43.71
2022-07-29T10:12:24.389Z,44.27
2022-07-29T10:17:24.158Z,44.99
2022-07-29T10:22:51.409Z,45.82
2022-07-29T10:27:47.544Z,46.40
2022-07-29T10:33:02.271Z,47.02
2022-07-29T10:38:17.671Z,47.15
2022-07-29T10:43:24.458Z,46.93
2022-07-29T10:48:25.013Z,46.85
2022-07-29T10:53:33.862Z,47.36
2022-07-29T10:58:34.948Z,46.76
2022-07-29T11:03:50.589Z,47.28
2022-07-29T11:09:17.826Z,47.34
2022-07-29T11:14:26.629Z,47.40
2022-07-29T11:25:43.004Z,46.93
2022-07-29T11:31:02.320Z,47.70
2022-07-29T11:36:16.774Z,47.55
2022-07-29T11:41:23.916Z,47.86
2022-07-29T11:46:47.894Z,47.69
2022-07-29T11:51:53.175Z,46.34
2022-07-29T11:56:53.808Z,46.40
2022-07-29T12:02:18.009Z,46.59
2022-07-29T12:07:17.295Z,45.71
2022-07-29T12:12:18.665Z,45.84
2022-07-29T12:17:30.837Z,46.58
2022-07-29T12:22:30.983Z,46.70
2022-07-29T12:27:29.892Z,46.58
2022-07-29T12:32:36.093Z,46.29
2022-07-29T12:37:42.696Z,46.57
2022-07-29T12:42:41.834Z,47.29
2022-07-29T12:47:54.858Z,47.49
2022-07-29T12:52:53.739Z,47.32
2022-07-29T12:57:54.486Z,47.84
2022-07-29T13:02:59.610Z,47.84
2022-07-29T13:08:21.832Z,47.93
2022-07-29T13:13:21.095Z,48.06
2022-07-29T13:18:31.765Z,48.01
2022-07-29T13:23:30.801Z,48.12
2022-07-29T13:28:29.545Z,48.44
2022-07-29T13:33:28.307Z,48.76
2022-07-29T13:38:31.286Z,48.65
2022-07-29T13:43:30.265Z,48.22
2022-07-29T13:48:29.171Z,48.10
2022-07-29T13:53:29.846Z,47.60
2022-07-29T13:58:28.855Z,47.13
2022-07-29T14:03:27.594Z,47.05
2022-07-29T14:08:26.603Z,47.21
2022-07-29T14:13:26.790Z,47.55
2022-07-29T14:18:25.613Z,48.09
2022-07-29T14:23:24.314Z,47.64
2022-07-29T14:28:26.585Z,47.80
2022-07-29T14:33:25.343Z,47.84
2022-07-29T14:38:26.943Z,47.88
2022-07-29T14:43:27.178Z,47.88
2022-07-29T14:48:25.993Z,47.79
2022-07-29T14:53:25.064Z,47.94
2022-07-29T14:58:23.929Z,47.81
2022-07-29T15:03:24.547Z,47.31
2022-07-29T15:08:24.057Z,47.09
2022-07-29T15:13:22.954Z,46.56
2022-07-29T15:18:25.699Z,46.45
2022-07-29T15:23:24.841Z,46.33
2022-07-29T15:28:23.604Z,46.25
2022-07-29T15:33:23.771Z,46.32
2022-07-29T15:38:28.964Z,45.89
2022-07-29T15:43:28.204Z,45.83
2022-07-29T15:48:28.366Z,45.79
2022-07-29T15:53:27.193Z,45.29
2022-07-29T15:58:26.006Z,45.00
2022-07-29T16:03:24.904Z,44.54
2022-07-29T16:08:25.067Z,44.24
2022-07-29T16:13:23.819Z,43.83
2022-07-29T16:18:23.136Z,43.37
2022-07-29T16:23:30.336Z,43.08
2022-07-29T16:28:29.197Z,42.73
2022-07-29T16:33:28.458Z,42.04
2022-07-29T16:38:49.582Z,41.66
2022-07-29T16:43:48.410Z,41.34
2022-07-29T16:48:47.316Z,41.06
2022-07-29T16:53:50.397Z,40.69
2022-07-29T16:58:49.373Z,40.26
2022-07-29T17:04:05.590Z,39.84
2022-07-29T17:09:07.316Z,39.38
2022-07-29T17:14:06.220Z,39.15
2022-07-29T17:19:07.854Z,38.84
2022-07-29T17:24:09.065Z,38.50
2022-07-29T17:29:07.998Z,38.18
2022-07-29T17:34:07.492Z,37.88
2022-07-29T17:39:08.368Z,37.69
2022-07-29T17:44:07.033Z,37.64
2022-07-29T17:49:05.918Z,37.26
2022-07-29T17:54:04.935Z,36.96
2022-07-29T17:59:06.747Z,36.62
2022-07-29T18:04:06.111Z,36.32
2022-07-29T18:09:05.084Z,36.00
2022-07-29T18:14:05.221Z,35.79
2022-07-29T18:19:03.996Z,35.54
2022-07-29T18:24:02.878Z,35.18
2022-07-29T18:29:01.730Z,34.78
2022-07-29T18:34:02.023Z,34.51
2022-07-29T18:39:00.965Z,34.31
2022-07-29T18:43:59.793Z,34.03
2022-07-29T18:48:59.763Z,33.86
2022-07-29T18:53:59.960Z,33.76
2022-07-29T18:58:58.846Z,33.63
2022-07-29T19:03:57.788Z,33.52
2022-07-29T19:08:56.627Z,33.52
2022-07-29T19:13:56.800Z,33.54
2022-07-29T19:18:56.096Z,33.47
2022-07-29T19:24:02.126Z,33.35
2022-07-29T19:29:07.800Z,33.18
2022-07-29T19:34:06.561Z,33.02
2022-07-29T19:39:05.663Z,32.87
2022-07-29T19:44:04.399Z,32.72
2022-07-29T19:49:06.674Z,32.55
2022-07-29T19:54:06.088Z,32.42
2022-07-29T19:59:07.346Z,31.96
2022-07-29T20:04:07.899Z,31.88
2022-07-29T20:09:06.913Z,31.75
2022-07-29T20:14:06.512Z,31.32
2022-07-29T20:19:05.403Z,31.24
2022-07-29T20:24:06.135Z,31.16
2022-07-29T20:29:05.485Z,31.05
2022-07-29T20:34:04.447Z,31.01
2022-07-29T20:39:03.207Z,30.80
2022-07-29T20:44:03.729Z,30.59
2022-07-29T20:49:02.767Z,30.47
2022-07-29T20:54:02.772Z,30.41
2022-07-29T20:59:01.654Z,30.40
2022-07-29T21:04:02.122Z,30.37
2022-07-29T21:09:01.263Z,30.34
2022-07-29T21:14:00.133Z,30.30
2022-07-29T21:18:58.981Z,30.28
2022-07-29T21:23:59.039Z,30.24
2022-07-29T21:28:57.800Z,30.09
2022-07-29T21:33:56.597Z,29.99
2022-07-29T21:38:55.455Z,30.11
2022-07-29T21:43:55.746Z,30.17
2022-07-29T21:48:58.307Z,30.21
2022-07-29T21:53:57.128Z,30.14
2022-07-29T21:58:57.283Z,30.21
2022-07-29T22:03:56.052Z,30.29
2022-07-29T22:08:54.882Z,30.14
2022-07-29T22:13:53.727Z,30.08
2022-07-29T22:18:54.182Z,30.15
2022-07-29T22:23:52.898Z,30.14
2022-07-29T22:28:51.828Z,30.10
2022-07-29T22:33:51.965Z,29.97
2022-07-29T22:38:52.268Z,29.88
2022-07-29T22:43:51.096Z,29.86
2022-07-29T22:48:50.012Z,29.78
2022-07-29T22:53:49.046Z,29.80
2022-07-29T22:58:50.239Z,29.78
2022-07-29T23:03:51.402Z,29.77
2022-07-29T23:08:50.503Z,29.65
2022-07-29T23:13:50.779Z,29.56
2022-07-29T23:18:49.637Z,29.31
2022-07-29T23:23:50.873Z,29.13
2022-07-29T23:28:51.102Z,29.09
2022-07-29T23:33:49.850Z,28.88
2022-07-29T23:38:48.698Z,28.77
2022-07-29T23:43:47.464Z,28.76
2022-07-29T23:48:47.631Z,28.64
2022-07-29T23:53:53.255Z,28.38
2022-07-29T23:58:54.377Z,28.25
